Time;durP1;ratioP1;P1;durP2;ratioP2;P2;SDS_P1;SDS_P2;PMS_P1;PMS_P2;Temp;Humidity;BMP_temperature;BMP_pressure;BME280_temperature;BME280_humidity;BME280_pressure;Samples;Min_cycle;Max_cycle;Signal;HPM_P1;HPM_P2
2021/07/29 00:00:41;;;;;;;6.32;3.17;;;16.90;99.90;;;;;;5074490;28;20035;-81
2021/07/29 00:03:08;;;;;;;4.57;3.03;;;17.20;99.90;;;;;;5072193;28;20021;-81
2021/07/29 00:05:36;;;;;;;5.28;3.15;;;16.80;99.90;;;;;;5074412;28;20059;-81
2021/07/29 00:08:02;;;;;;;7.13;3.60;;;16.80;99.90;;;;;;5076769;28;20488;-80
2021/07/29 00:10:29;;;;;;;4.88;3.05;;;16.80;99.90;;;;;;5073459;28;20035;-81
2021/07/29 00:12:56;;;;;;;6.05;3.35;;;16.80;99.90;;;;;;5077228;28;20103;-78
2021/07/29 00:15:21;;;;;;;5.70;3.20;;;17.00;99.90;;;;;;5079142;28;20082;-80
2021/07/29 00:20:14;;;;;;;7.78;3.75;;;16.90;99.90;;;;;;5070434;28;20154;-81
2021/07/29 00:22:41;;;;;;;5.28;2.95;;;16.90;99.90;;;;;;5072060;28;20045;-81
2021/07/29 00:25:11;;;;;;;7.93;4.28;;;17.90;99.90;;;;;;5074298;28;20497;-83
2021/07/29 00:27:37;;;;;;;7.10;3.40;;;17.00;99.90;;;;;;5072573;28;20487;-81
2021/07/29 00:30:04;;;;;;;5.25;3.28;;;17.10;99.90;;;;;;5071340;28;20049;-80
2021/07/29 00:32:30;;;;;;;6.20;3.38;;;17.00;99.90;;;;;;5068722;28;20021;-81
2021/07/29 00:34:55;;;;;;;5.45;3.20;;;16.90;99.90;;;;;;5071775;28;20034;-81
2021/07/29 00:37:21;;;;;;;6.15;3.10;;;17.00;99.90;;;;;;5076834;28;20020;-83
2021/07/29 00:39:46;;;;;;;8.75;3.80;;;18.60;99.90;;;;;;5070469;28;20020;-79
2021/07/29 00:42:12;;;;;;;6.53;3.08;;;17.10;99.90;;;;;;5071969;28;20036;-81
2021/07/29 00:44:38;;;;;;;7.32;3.13;;;17.20;99.90;;;;;;5067361;28;20032;-81
2021/07/29 00:47:05;;;;;;;4.70;2.78;;;17.20;99.90;;;;;;5070645;28;20044;-81
2021/07/29 00:49:31;;;;;;;5.40;3.30;;;17.30;99.90;;;;;;5070101;28;20032;-80
2021/07/29 00:51:57;;;;;;;5.88;2.95;;;17.90;99.90;;;;;;5070826;28;20058;-81
2021/07/29 00:54:27;;;;;;;5.78;3.10;;;18.20;99.90;;;;;;5072569;28;20081;-82
2021/07/29 00:56:54;;;;;;;7.35;3.20;;;17.40;99.90;;;;;;5072820;28;20039;-82
2021/07/29 00:59:20;;;;;;;5.47;3.08;;;17.50;99.90;;;;;;5071367;28;20034;-80
2021/07/29 01:01:45;;;;;;;9.15;3.10;;;17.50;99.90;;;;;;5072365;28;20029;-82
2021/07/29 01:04:11;;;;;;;5.00;2.72;;;17.40;99.90;;;;;;5076749;28;20089;-78
2021/07/29 01:06:37;;;;;;;4.90;3.10;;;17.60;99.90;;;;;;5078723;28;20100;-78
2021/07/29 01:09:10;;;;;;;7.10;3.45;;;18.60;99.90;;;;;;5082594;28;20091;-80
2021/07/29 01:11:41;;;;;;;7.25;3.20;;;17.50;99.90;;;;;;5073570;28;20042;-80
2021/07/29 01:14:07;;;;;;;7.32;3.38;;;17.60;99.90;;;;;;5075388;28;20025;-82
2021/07/29 01:16:33;;;;;;;8.70;3.50;;;18.40;99.90;;;;;;5078884;28;20059;-82
2021/07/29 01:18:59;;;;;;;5.60;3.00;;;17.50;99.90;;;;;;5075397;28;20025;-80
2021/07/29 01:21:26;;;;;;;10.45;3.72;;;17.60;99.90;;;;;;5077257;28;20024;-80
2021/07/29 01:23:52;;;;;;;6.38;3.17;;;17.50;99.90;;;;;;5073156;28;20021;-83
2021/07/29 01:26:17;;;;;;;5.85;3.10;;;18.20;99.90;;;;;;5076976;28;20397;-83
2021/07/29 01:28:43;;;;;;;6.32;3.30;;;17.50;99.90;;;;;;5074165;28;20039;-79
2021/07/29 01:31:09;;;;;;;5.00;2.88;;;18.90;99.90;;;;;;5072431;28;20038;-80
2021/07/29 01:33:38;;;;;;;5.57;2.80;;;17.30;99.90;;;;;;5070655;28;20031;-80
2021/07/29 01:36:04;;;;;;;5.90;2.83;;;17.20;99.90;;;;;;5077184;28;20047;-81
2021/07/29 01:38:30;;;;;;;5.07;3.15;;;17.10;99.90;;;;;;5079555;28;20037;-83
2021/07/29 01:40:57;;;;;;;6.18;2.97;;;17.00;99.90;;;;;;5085261;28;20425;-79
2021/07/29 01:43:23;;;;;;;10.23;3.83;;;17.60;99.90;;;;;;5079306;28;20020;-82
2021/07/29 01:45:49;;;;;;;5.13;3.08;;;16.90;99.90;;;;;;5079923;28;20055;-82
2021/07/29 01:48:15;;;;;;;4.07;2.85;;;;;;;;;;5080277;28;20044;-81
2021/07/29 01:50:43;;;;;;;8.32;3.15;;;16.80;99.90;;;;;;5080016;28;20036;-80
2021/07/29 01:53:09;;;;;;;4.63;2.97;;;16.80;99.90;;;;;;5086294;28;20031;-82
2021/07/29 01:55:35;;;;;;;6.63;3.40;;;18.10;99.90;;;;;;5080837;28;20082;-79
2021/07/29 01:58:01;;;;;;;5.53;2.58;;;16.90;99.90;;;;;;5080320;28;20143;-81
2021/07/29 02:00:26;;;;;;;5.47;3.00;;;16.90;99.90;;;;;;5070976;28;20078;-81
2021/07/29 02:02:52;;;;;;;5.97;3.38;;;17.80;99.90;;;;;;5075677;28;20026;-79
2021/07/29 02:05:17;;;;;;;7.57;3.20;;;17.10;99.90;;;;;;5076220;28;20092;-79
2021/07/29 02:07:43;;;;;;;4.60;2.70;;;17.60;99.90;;;;;;5075172;28;20084;-78
2021/07/29 02:10:09;;;;;;;5.28;2.88;;;16.90;99.90;;;;;;5080285;28;20032;-84
2021/07/29 02:12:34;;;;;;;6.78;3.08;;;16.90;99.90;;;;;;5073686;28;20087;-81
2021/07/29 02:15:00;;;;;;;6.75;3.40;;;16.70;99.90;;;;;;5077284;28;20032;-80
2021/07/29 02:17:26;;;;;;;6.47;3.83;;;16.90;99.90;;;;;;5072731;28;20028;-82
2021/07/29 02:19:51;;;;;;;4.78;3.08;;;17.40;99.90;;;;;;5075977;28;20029;-80
2021/07/29 02:22:17;;;;;;;6.45;3.30;;;16.90;99.90;;;;;;5082371;28;20079;-81
2021/07/29 02:24:43;;;;;;;4.78;3.13;;;17.10;99.90;;;;;;5076696;28;20087;-80
2021/07/29 02:27:08;;;;;;;4.80;2.80;;;17.60;99.90;;;;;;5080378;28;20547;-79
2021/07/29 02:29:34;;;;;;;5.63;2.80;;;17.00;99.90;;;;;;5095407;28;20036;-81
2021/07/29 02:32:00;;;;;;;5.88;3.00;;;17.10;99.90;;;;;;5076902;28;20025;-79
2021/07/29 02:34:26;;;;;;;6.22;2.92;;;17.00;99.90;;;;;;5084618;28;20039;-79
2021/07/29 02:36:51;;;;;;;5.93;2.70;;;17.10;99.90;;;;;;5079269;28;20024;-80
2021/07/29 02:39:17;;;;;;;6.07;2.80;;;17.20;99.90;;;;;;5076926;28;20021;-80
2021/07/29 02:41:42;;;;;;;3.92;2.47;;;17.30;99.90;;;;;;5075105;28;20038;-79
2021/07/29 02:44:08;;;;;;;6.63;3.00;;;17.30;99.90;;;;;;5077048;28;20021;-79
2021/07/29 02:46:34;;;;;;;4.95;3.17;;;17.50;99.90;;;;;;5081918;28;20074;-82
2021/07/29 02:48:59;;;;;;;5.57;2.95;;;17.50;99.90;;;;;;5082318;28;20785;-79
2021/07/29 02:51:25;;;;;;;4.32;2.53;;;17.60;99.90;;;;;;5067086;28;20059;-78
2021/07/29 02:53:51;;;;;;;4.50;2.42;;;17.70;99.90;;;;;;5067153;28;20033;-81
2021/07/29 02:56:16;;;;;;;4.22;2.40;;;17.60;99.90;;;;;;5069846;28;20032;-80
2021/07/29 02:58:44;;;;;;;7.72;2.53;;;17.80;99.90;;;;;;5078465;28;20060;-79
2021/07/29 03:01:10;;;;;;;5.55;2.45;;;17.70;99.90;;;;;;5073804;28;20029;-77
2021/07/29 03:03:35;;;;;;;5.82;2.95;;;17.80;99.90;;;;;;5078952;28;20095;-81
2021/07/29 03:06:01;;;;;;;5.32;2.60;;;17.70;99.90;;;;;;5083066;28;20036;-80
2021/07/29 03:08:27;;;;;;;5.15;2.67;;;17.70;99.90;;;;;;5080726;28;20025;-81
2021/07/29 03:10:53;;;;;;;4.45;2.47;;;18.70;99.90;;;;;;5080787;28;20031;-80
2021/07/29 03:13:19;;;;;;;6.13;2.50;;;17.80;99.90;;;;;;5077303;28;20029;-79
2021/07/29 03:15:45;;;;;;;5.13;2.70;;;17.80;99.90;;;;;;5074852;28;20054;-79
2021/07/29 03:18:11;;;;;;;7.15;3.00;;;17.80;99.90;;;;;;5078115;28;20050;-80
2021/07/29 03:20:36;;;;;;;4.43;2.85;;;17.80;99.90;;;;;;5075132;28;20084;-82
2021/07/29 03:23:02;;;;;;;5.60;3.13;;;17.70;99.90;;;;;;5079434;28;20029;-80
2021/07/29 03:25:28;;;;;;;3.95;2.10;;;17.80;99.90;;;;;;5077579;28;20013;-85
2021/07/29 03:27:53;;;;;;;5.13;2.70;;;18.20;99.90;;;;;;5080666;28;20032;-81
2021/07/29 03:30:19;;;;;;;4.00;2.30;;;17.80;99.90;;;;;;5074271;28;20021;-77
2021/07/29 03:32:44;;;;;;;6.18;2.40;;;17.80;99.90;;;;;;5077740;28;20024;-80
2021/07/29 03:35:10;;;;;;;4.75;2.45;;;18.00;99.90;;;;;;5073837;28;20029;-80
2021/07/29 03:37:36;;;;;;;4.80;2.35;;;17.70;99.90;;;;;;5071931;28;20025;-79
2021/07/29 03:40:05;;;;;;;6.05;2.33;;;17.70;99.90;;;;;;5085382;28;20024;-82
2021/07/29 03:42:31;;;;;;;4.20;2.35;;;17.70;99.90;;;;;;5073089;28;20053;-83
2021/07/29 03:44:58;;;;;;;4.25;2.30;;;17.70;99.90;;;;;;5067803;28;20029;-81
2021/07/29 03:47:24;;;;;;;3.90;2.40;;;17.70;99.90;;;;;;5078513;28;20096;-79
2021/07/29 03:49:49;;;;;;;5.10;2.83;;;17.70;99.90;;;;;;5078380;28;20069;-80
2021/07/29 03:52:15;;;;;;;4.93;2.30;;;17.70;99.90;;;;;;5076801;28;20033;-81
2021/07/29 03:54:40;;;;;;;3.72;2.40;;;17.70;99.90;;;;;;5077967;28;20215;-80
2021/07/29 03:57:08;;;;;;;4.18;2.47;;;17.70;99.90;;;;;;5075985;28;20032;-80
2021/07/29 03:59:38;;;;;;;4.90;2.30;;;17.70;99.90;;;;;;5080753;28;20088;-80
2021/07/29 04:02:10;;;;;;;4.40;2.50;;;17.80;99.90;;;;;;5073875;28;20024;-79
2021/07/29 04:04:40;;;;;;;3.67;2.40;;;17.80;99.90;;;;;;5078101;28;20054;-81
2021/07/29 04:07:07;;;;;;;3.67;2.38;;;17.70;99.90;;;;;;5080253;28;20063;-82
2021/07/29 04:09:33;;;;;;;3.88;2.33;;;17.70;99.90;;;;;;5082854;28;20092;-80
2021/07/29 04:12:00;;;;;;;5.07;2.45;;;17.70;99.90;;;;;;5076877;28;20570;-79
2021/07/29 04:14:26;;;;;;;3.92;2.25;;;17.70;99.90;;;;;;5075611;28;20036;-82
2021/07/29 04:16:53;;;;;;;4.97;2.40;;;17.70;99.90;;;;;;5075162;28;20029;-81
2021/07/29 04:19:19;;;;;;;7.25;2.17;;;17.80;99.90;;;;;;5072703;28;20017;-82
2021/07/29 04:21:45;;;;;;;4.28;2.13;;;17.70;99.90;;;;;;5071139;28;20024;-80
2021/07/29 04:24:10;;;;;;;4.80;2.20;;;17.80;99.90;;;;;;5079335;28;20060;-80
2021/07/29 04:26:38;;;;;;;4.45;2.60;;;;;;;;;;5075256;28;20060;-83
2021/07/29 04:29:04;;;;;;;7.43;2.70;;;17.80;99.90;;;;;;5070430;28;20560;-82
2021/07/29 04:31:30;;;;;;;3.95;2.42;;;19.10;99.90;;;;;;5072959;28;20063;-80
2021/07/29 04:33:55;;;;;;;5.65;2.25;;;19.90;99.90;;;;;;5079732;28;20099;-81
2021/07/29 04:36:21;;;;;;;5.43;2.20;;;17.90;99.90;;;;;;5072159;28;20025;-81
2021/07/29 04:38:46;;;;;;;4.47;2.30;;;17.80;99.90;;;;;;5064226;28;20025;-79
2021/07/29 04:41:12;;;;;;;4.07;2.10;;;17.80;99.90;;;;;;5071223;28;20080;-79
2021/07/29 04:43:38;;;;;;;6.47;2.65;;;17.70;99.90;;;;;;5068128;28;20063;-79
2021/07/29 04:46:04;;;;;;;3.70;2.30;;;17.80;99.90;;;;;;5070886;28;20050;-81
2021/07/29 04:48:30;;;;;;;6.90;2.58;;;;;;;;;;5081466;28;20024;-82
2021/07/29 04:51:03;;;;;;;4.18;2.30;;;17.80;99.90;;;;;;5075450;28;20112;-80
2021/07/29 04:53:30;;;;;;;3.78;2.13;;;17.80;99.90;;;;;;5078420;28;20036;-82
2021/07/29 04:55:56;;;;;;;5.47;2.15;;;17.80;99.90;;;;;;5079759;28;20058;-81
2021/07/29 04:58:22;;;;;;;4.00;2.15;;;18.40;99.90;;;;;;5067586;28;20017;-81
2021/07/29 05:00:47;;;;;;;4.00;1.92;;;17.90;99.90;;;;;;5071966;28;20034;-82
2021/07/29 05:03:13;;;;;;;3.22;2.00;;;17.90;99.90;;;;;;5077485;28;20097;-83
2021/07/29 05:05:38;;;;;;;5.75;2.45;;;17.90;99.90;;;;;;5082329;28;20027;-80
2021/07/29 05:08:04;;;;;;;2.92;2.00;;;17.90;99.90;;;;;;5075346;28;20025;-81
2021/07/29 05:10:30;;;;;;;8.25;2.80;;;17.90;99.90;;;;;;5074011;28;20032;-83
2021/07/29 05:12:56;;;;;;;5.80;1.98;;;17.90;99.90;;;;;;5074076;28;20025;-83
2021/07/29 05:15:22;;;;;;;6.70;2.50;;;18.00;99.90;;;;;;5069046;28;20036;-81
2021/07/29 05:17:54;;;;;;;12.70;3.63;;;18.00;99.90;;;;;;5072529;28;20036;-80
2021/07/29 05:20:20;;;;;;;5.40;2.50;;;18.00;99.90;;;;;;5061860;28;20024;-80
2021/07/29 05:22:46;;;;;;;4.80;2.08;;;17.90;99.90;;;;;;5065520;28;20036;-80
2021/07/29 05:25:11;;;;;;;3.95;2.58;;;17.90;99.90;;;;;;5070179;28;20025;-79
2021/07/29 05:27:37;;;;;;;4.25;2.20;;;18.00;99.90;;;;;;5067226;28;20474;-80
2021/07/29 05:30:03;;;;;;;4.80;2.17;;;18.00;99.90;;;;;;5065766;28;20024;-81
2021/07/29 05:32:29;;;;;;;5.38;2.20;;;18.20;99.90;;;;;;5066995;28;20028;-80
2021/07/29 05:34:54;;;;;;;3.90;2.25;;;18.20;99.90;;;;;;5068513;28;20047;-81
2021/07/29 05:37:20;;;;;;;5.03;2.10;;;18.20;99.90;;;;;;5073892;28;20028;-81
2021/07/29 05:39:45;;;;;;;11.07;2.40;;;18.20;99.90;;;;;;5068430;28;20475;-79
2021/07/29 05:42:11;;;;;;;4.22;2.00;;;18.30;99.90;;;;;;5076505;28;20017;-80
2021/07/29 05:44:37;;;;;;;4.70;2.00;;;19.20;99.90;;;;;;5073919;28;20084;-81
2021/07/29 05:47:03;;;;;;;3.67;1.90;;;18.30;99.90;;;;;;5067851;28;20032;-81
2021/07/29 05:49:29;;;;;;;5.88;2.08;;;18.40;99.90;;;;;;5061900;28;20131;-81
2021/07/29 05:51:54;;;;;;;3.85;1.73;;;18.50;99.90;;;;;;5062053;28;20029;-81
2021/07/29 05:54:20;;;;;;;4.13;1.73;;;18.80;99.90;;;;;;5066955;28;20115;-82
2021/07/29 05:56:48;;;;;;;6.95;2.10;;;19.20;99.90;;;;;;5067735;28;20482;-80
2021/07/29 05:59:14;;;;;;;4.97;2.30;;;20.20;99.10;;;;;;5085989;28;20501;-78
2021/07/29 06:01:39;;;;;;;5.72;2.10;;;20.30;98.40;;;;;;5064617;28;20025;-80
2021/07/29 06:04:05;;;;;;;6.88;2.10;;;19.90;98.40;;;;;;5073273;28;20478;-81
2021/07/29 06:06:31;;;;;;;4.55;2.00;;;19.80;98.70;;;;;;5072021;28;20040;-78
2021/07/29 06:08:58;;;;;;;6.70;2.47;;;19.40;99.20;;;;;;5067258;28;20028;-80
2021/07/29 06:11:24;;;;;;;4.78;2.70;;;19.30;99.80;;;;;;5067373;28;20587;-80
2021/07/29 06:13:50;;;;;;;4.95;2.20;;;19.10;99.90;;;;;;5068221;28;20029;-79
2021/07/29 06:16:17;;;;;;;2.95;1.70;;;18.80;99.90;;;;;;5061681;28;20032;-81
2021/07/29 06:18:53;;;;;;;2.88;1.85;;;18.70;99.90;;;;;;5068184;28;20483;-81
2021/07/29 06:21:18;;;;;;;3.55;2.05;;;18.50;99.90;;;;;;5066875;28;20025;-79
2021/07/29 06:23:44;;;;;;;2.83;2.00;;;18.60;99.90;;;;;;5077125;28;20021;-80
2021/07/29 06:26:10;;;;;;;5.80;2.45;;;18.60;99.90;;;;;;5075944;28;20036;-80
2021/07/29 06:28:36;;;;;;;4.40;2.00;;;18.40;99.90;;;;;;5072675;28;20032;-82
2021/07/29 06:31:02;;;;;;;5.72;2.00;;;18.40;99.90;;;;;;5073746;28;20040;-81
2021/07/29 06:33:28;;;;;;;6.68;2.10;;;18.50;99.90;;;;;;5074425;28;20050;-81
2021/07/29 06:35:53;;;;;;;4.35;2.20;;;19.60;99.90;;;;;;5074763;28;20074;-79
2021/07/29 06:38:19;;;;;;;4.70;1.90;;;18.70;99.90;;;;;;5077358;28;20027;-80
2021/07/29 06:40:44;;;;;;;5.68;2.20;;;18.80;99.90;;;;;;5072181;28;20021;-80
2021/07/29 06:43:10;;;;;;;4.70;1.90;;;18.90;99.80;;;;;;5072200;28;20555;-80
2021/07/29 06:45:35;;;;;;;3.45;1.92;;;19.10;99.40;;;;;;5073722;28;20061;-80
2021/07/29 06:48:01;;;;;;;3.05;1.80;;;19.20;99.10;;;;;;5077116;28;20025;-80
2021/07/29 06:50:27;;;;;;;4.97;2.03;;;19.20;99.10;;;;;;5068520;28;20115;-81
2021/07/29 06:52:52;;;;;;;3.00;2.10;;;19.30;98.70;;;;;;5070068;28;20040;-82
2021/07/29 06:55:18;;;;;;;4.10;1.90;;;19.20;99.00;;;;;;5072667;28;20040;-78
2021/07/29 06:57:44;;;;;;;3.15;2.00;;;19.40;99.00;;;;;;5073890;28;20145;-80
2021/07/29 07:00:10;;;;;;;5.95;2.10;;;19.50;98.90;;;;;;5074384;28;20048;-79
2021/07/29 07:02:35;;;;;;;4.55;1.83;;;19.40;98.90;;;;;;5075585;28;20074;-79
2021/07/29 07:05:01;;;;;;;4.03;2.03;;;19.50;98.50;;;;;;5072296;28;20020;-81
2021/07/29 07:07:26;;;;;;;4.88;2.13;;;19.60;98.40;;;;;;5070891;28;20106;-80
2021/07/29 07:09:52;;;;;;;5.68;3.00;;;19.80;98.10;;;;;;5067688;28;20024;-79
2021/07/29 07:12:18;;;;;;;3.70;1.80;;;20.10;98.00;;;;;;5072564;28;20029;-80
2021/07/29 07:14:43;;;;;;;7.40;2.10;;;20.00;97.90;;;;;;5070775;28;20467;-79
2021/07/29 07:17:09;;;;;;;3.72;2.05;;;20.00;97.40;;;;;;5070594;28;20040;-79
2021/07/29 07:19:35;;;;;;;5.53;2.33;;;20.00;97.80;;;;;;5060558;28;20079;-80
2021/07/29 07:22:02;;;;;;;4.70;2.28;;;20.30;97.70;;;;;;5069205;28;20035;-80
2021/07/29 07:24:28;;;;;;;4.32;2.10;;;20.20;97.50;;;;;;5076688;28;20023;-80
2021/07/29 07:26:53;;;;;;;5.45;1.90;;;20.20;97.10;;;;;;5070233;28;20032;-80
2021/07/29 07:29:19;;;;;;;5.63;2.15;;;20.50;97.30;;;;;;5065401;28;20501;-78
2021/07/29 07:31:45;;;;;;;4.85;1.98;;;20.80;97.30;;;;;;5075488;28;20024;-80
2021/07/29 07:34:10;;;;;;;4.90;2.10;;;20.40;97.30;;;;;;5077772;28;20028;-79
2021/07/29 07:36:36;;;;;;;6.13;2.08;;;20.30;97.30;;;;;;5071113;28;20048;-80
2021/07/29 07:39:02;;;;;;;4.63;2.05;;;20.30;97.00;;;;;;5077789;28;20028;-80
2021/07/29 07:41:27;;;;;;;4.38;2.40;;;20.40;97.20;;;;;;5080201;28;20062;-79
2021/07/29 07:43:53;;;;;;;4.57;2.00;;;20.10;96.90;;;;;;5074835;28;20104;-80
2021/07/29 07:46:18;;;;;;;5.32;1.85;;;20.30;96.60;;;;;;5080385;28;20029;-80
2021/07/29 07:48:45;;;;;;;7.07;2.10;;;20.10;96.90;;;;;;5078702;28;20063;-79
2021/07/29 07:51:10;;;;;;;4.50;1.95;;;20.20;97.00;;;;;;5078276;28;20329;-80
2021/07/29 07:53:36;;;;;;;4.78;2.05;;;20.10;97.20;;;;;;5079345;28;20040;-80
2021/07/29 07:56:04;;;;;;;4.05;1.70;;;20.10;96.90;;;;;;5067962;28;20044;-79
2021/07/29 07:58:29;;;;;;;6.97;2.47;;;20.20;96.70;;;;;;5069374;28;20042;-82
2021/07/29 08:00:55;;;;;;;5.93;2.17;;;20.00;97.00;;;;;;5070685;28;20060;-81
2021/07/29 08:03:20;;;;;;;4.97;2.33;;;20.00;97.10;;;;;;5073800;28;20017;-81
2021/07/29 08:05:46;;;;;;;3.25;1.65;;;20.20;97.00;;;;;;5070976;28;20116;-81
2021/07/29 08:08:12;;;;;;;3.83;2.00;;;19.80;97.10;;;;;;5072041;28;20051;-80
2021/07/29 08:10:39;;;;;;;7.60;1.80;;;19.90;97.30;;;;;;5070746;28;20104;-81
2021/07/29 08:13:05;;;;;;;3.70;2.22;;;19.90;97.20;;;;;;5070844;28;20444;-81
2021/07/29 08:15:32;;;;;;;5.55;2.15;;;19.90;97.00;;;;;;5075148;28;20024;-78
2021/07/29 08:17:59;;;;;;;26.70;4.05;;;20.10;97.00;;;;;;5075231;28;20092;-79
2021/07/29 08:20:25;;;;;;;9.25;2.55;;;20.10;96.80;;;;;;5069394;28;20024;-79
2021/07/29 08:22:54;;;;;;;4.07;1.98;;;20.20;96.90;;;;;;5066645;28;20025;-79
2021/07/29 08:25:21;;;;;;;5.65;2.08;;;20.30;96.80;;;;;;5071569;28;20344;-79
2021/07/29 08:27:51;;;;;;;3.25;1.80;;;20.20;96.60;;;;;;5070847;28;20056;-80
2021/07/29 08:30:18;;;;;;;5.35;1.92;;;20.40;95.90;;;;;;5072408;28;20039;-80
2021/07/29 08:32:44;;;;;;;2.97;2.03;;;20.60;95.80;;;;;;5064162;28;20032;-79
2021/07/29 08:35:10;;;;;;;3.38;1.90;;;20.60;95.70;;;;;;5069782;28;20032;-80
2021/07/29 08:37:36;;;;;;;3.00;1.70;;;20.60;95.90;;;;;;5076153;28;20041;-81
2021/07/29 08:40:03;;;;;;;6.15;2.30;;;20.80;95.50;;;;;;5075662;28;20547;-80
2021/07/29 08:42:30;;;;;;;6.13;2.10;;;20.70;95.00;;;;;;5068263;28;20108;-81
2021/07/29 08:44:56;;;;;;;3.95;1.90;;;20.80;95.00;;;;;;5066851;28;20036;-80
2021/07/29 08:47:30;;;;;;;14.40;2.88;;;21.00;94.30;;;;;;5070047;28;20024;-79
2021/07/29 08:49:55;;;;;;;5.38;2.25;;;21.40;94.70;;;;;;5071026;28;20037;-80
2021/07/29 08:52:23;;;;;;;3.13;1.77;;;21.90;94.50;;;;;;5070282;28;20028;-79
2021/07/29 08:54:50;;;;;;;4.30;1.88;;;21.50;94.00;;;;;;5067559;28;20694;-80
2021/07/29 08:57:28;;;;;;;2.67;1.65;;;21.90;93.00;;;;;;5067307;28;20032;-79
2021/07/29 08:59:57;;;;;;;3.28;1.55;;;21.70;92.90;;;;;;5071911;28;20115;-80
2021/07/29 09:02:27;;;;;;;7.63;2.22;;;21.70;92.60;;;;;;5067652;28;20104;-78
2021/07/29 09:05:22;;;;;;;3.38;1.65;;;21.80;92.60;;;;;;5063219;28;20025;-79
2021/07/29 09:08:09;;;;;;;4.60;1.75;;;22.00;92.40;;;;;;5073070;28;20101;-80
2021/07/29 09:10:40;;;;;;;3.05;1.70;;;22.20;91.70;;;;;;5069561;28;20020;-79
2021/07/29 09:13:09;;;;;;;3.08;1.75;;;22.30;91.10;;;;;;5067738;28;20032;-80
2021/07/29 09:15:35;;;;;;;3.80;1.77;;;22.50;90.70;;;;;;5066537;28;20076;-81
2021/07/29 09:18:02;;;;;;;3.30;1.77;;;22.60;90.40;;;;;;5067554;28;20525;-81
2021/07/29 09:20:28;;;;;;;2.25;1.58;;;22.50;90.50;;;;;;5064255;28;20120;-80
2021/07/29 09:22:53;;;;;;;2.45;1.40;;;22.40;90.30;;;;;;5065281;28;20059;-80
2021/07/29 09:25:24;;;;;;;3.00;1.63;;;21.90;90.60;;;;;;5071482;28;20067;-80
2021/07/29 09:27:51;;;;;;;15.88;3.05;;;21.60;91.00;;;;;;5066277;28;20036;-79
2021/07/29 09:30:23;;;;;;;8.38;2.15;;;21.50;91.40;;;;;;5078802;28;20031;-80
2021/07/29 09:32:58;;;;;;;9.35;2.22;;;21.60;90.30;;;;;;5074280;28;20028;-80
2021/07/29 09:35:37;;;;;;;6.97;2.10;;;21.50;90.40;;;;;;5064509;28;20036;-80
2021/07/29 09:38:22;;;;;;;4.00;1.85;;;21.50;90.60;;;;;;5059720;28;20163;-80
2021/07/29 09:40:49;;;;;;;7.90;2.25;;;21.90;90.60;;;;;;5072635;28;20025;-80
2021/07/29 09:43:21;;;;;;;5.05;1.80;;;22.10;90.30;;;;;;5068197;28;20111;-80
2021/07/29 09:45:52;;;;;;;3.25;1.70;;;22.50;88.70;;;;;;5070797;28;20661;-80
2021/07/29 09:48:21;;;;;;;3.75;1.85;;;22.50;88.40;;;;;;5062844;28;20032;-79
2021/07/29 09:50:48;;;;;;;2.83;1.70;;;22.50;88.40;;;;;;5061345;28;20112;-79
2021/07/29 09:53:13;;;;;;;4.32;1.75;;;22.90;87.20;;;;;;5069308;28;20055;-80
2021/07/29 09:55:39;;;;;;;5.18;1.83;;;22.90;85.70;;;;;;5067674;28;20021;-78
2021/07/29 09:58:05;;;;;;;3.15;1.58;;;22.80;86.20;;;;;;5072851;28;20028;-81
2021/07/29 10:00:36;;;;;;;4.13;1.42;;;23.00;86.50;;;;;;5074059;28;20078;-82
2021/07/29 10:03:05;;;;;;;2.85;1.70;;;22.90;86.50;;;;;;5072605;28;20059;-80
2021/07/29 10:05:40;;;;;;;2.92;1.80;;;22.70;86.60;;;;;;5073086;28;20046;-81
2021/07/29 10:08:10;;;;;;;4.05;2.33;;;22.50;87.10;;;;;;5073344;28;20060;-81
2021/07/29 10:10:37;;;;;;;2.97;1.48;;;22.20;87.90;;;;;;5074140;28;20165;-80
2021/07/29 10:13:02;;;;;;;2.78;1.70;;;22.20;88.60;;;;;;5068903;28;20120;-79
2021/07/29 10:15:45;;;;;;;3.45;1.77;;;22.20;87.80;;;;;;5072387;28;20131;-79
2021/07/29 10:18:13;;;;;;;3.13;1.92;;;22.30;86.70;;;;;;5063145;28;20045;-80
2021/07/29 10:20:40;;;;;;;3.45;1.60;;;22.50;84.10;;;;;;5068507;28;20070;-80
2021/07/29 10:23:15;;;;;;;3.53;1.52;;;22.80;83.10;;;;;;5069634;28;20131;-80
2021/07/29 10:25:53;;;;;;;2.88;1.80;;;23.80;83.30;;;;;;5066136;28;20021;-79
2021/07/29 10:28:38;;;;;;;2.17;1.30;;;23.30;81.90;;;;;;5061095;28;20025;-78
2021/07/29 10:31:06;;;;;;;2.70;1.55;;;23.40;81.70;;;;;;5072972;28;20032;-80
2021/07/29 10:33:31;;;;;;;3.38;1.70;;;23.20;83.00;;;;;;5065670;28;20028;-81
2021/07/29 10:35:59;;;;;;;3.70;1.95;;;23.40;83.20;;;;;;5067506;28;20058;-79
2021/07/29 10:38:47;;;;;;;2.47;1.65;;;23.40;82.80;;;;;;5069179;28;20102;-78
2021/07/29 10:41:13;;;;;;;3.15;1.42;;;23.40;81.70;;;;;;5069873;28;20031;-82
2021/07/29 10:43:42;;;;;;;2.58;1.60;;;23.60;80.90;;;;;;5060810;28;20021;-81
2021/07/29 10:46:09;;;;;;;2.72;1.88;;;23.70;81.30;;;;;;5064997;28;20074;-81
2021/07/29 10:48:41;;;;;;;2.60;1.90;;;24.00;80.80;;;;;;5061603;28;20080;-79
2021/07/29 10:51:11;;;;;;;4.30;2.10;;;23.90;81.70;;;;;;5062035;28;20049;-81
2021/07/29 10:53:40;;;;;;;2.47;1.40;;;23.30;82.10;;;;;;5068541;28;20078;-79
2021/07/29 10:56:08;;;;;;;2.20;1.58;;;23.30;81.90;;;;;;5070150;28;20429;-80
2021/07/29 10:58:44;;;;;;;2.75;1.80;;;23.20;80.50;;;;;;5068307;28;20024;-81
2021/07/29 11:01:11;;;;;;;3.67;1.73;;;23.20;81.40;;;;;;5067135;28;20016;-78
2021/07/29 11:03:44;;;;;;;2.70;1.77;;;23.20;81.60;;;;;;5070924;28;20029;-82
2021/07/29 11:06:13;;;;;;;3.35;1.70;;;23.00;81.00;;;;;;5069328;28;20521;-78
2021/07/29 11:08:39;;;;;;;2.60;1.60;;;23.50;81.50;;;;;;5075570;28;20036;-81
2021/07/29 11:11:05;;;;;;;6.10;1.60;;;23.30;80.00;;;;;;5073929;28;20491;-81
2021/07/29 11:13:32;;;;;;;2.95;1.40;;;23.60;79.10;;;;;;5074774;28;20089;-79
2021/07/29 11:16:00;;;;;;;2.60;1.40;;;23.90;75.40;;;;;;5064360;28;20024;-82
2021/07/29 11:18:26;;;;;;;3.13;1.52;;;23.50;75.50;;;;;;5067442;28;20105;-81
2021/07/29 11:20:52;;;;;;;2.22;1.50;;;23.30;76.10;;;;;;5062855;28;20045;-78
2021/07/29 11:23:44;;;;;;;3.22;1.60;;;23.40;76.30;;;;;;5069733;28;20423;-79
2021/07/29 11:26:10;;;;;;;2.65;1.50;;;23.70;75.40;;;;;;5071847;28;20061;-79
2021/07/29 11:28:36;;;;;;;3.28;1.50;;;23.90;75.90;;;;;;5068546;28;20033;-81
2021/07/29 11:31:02;;;;;;;4.15;1.80;;;24.00;75.50;;;;;;5066322;28;20040;-80
2021/07/29 11:33:29;;;;;;;2.10;1.50;;;24.20;76.20;;;;;;5066863;28;20141;-80
2021/07/29 11:36:05;;;;;;;3.22;1.67;;;24.30;74.40;;;;;;5065616;28;20032;-79
2021/07/29 11:38:31;;;;;;;3.95;2.25;;;23.90;74.40;;;;;;5059414;28;20610;-80
2021/07/29 11:41:01;;;;;;;2.03;1.30;;;23.90;74.90;;;;;;5069547;28;20134;-82
2021/07/29 11:43:27;;;;;;;;;;;23.80;74.70;;;;;;5064466;28;20025;-82
2021/07/29 11:46:08;;;;;;;3.00;1.60;;;24.10;74.40;;;;;;5072747;28;19912;-79
2021/07/29 11:48:33;;;;;;;2.75;1.40;;;24.40;74.50;;;;;;5072073;28;20066;-82
2021/07/29 11:50:59;;;;;;;3.05;1.80;;;24.70;72.70;;;;;;5067751;28;20405;-80
2021/07/29 11:53:39;;;;;;;3.45;1.58;;;24.80;72.90;;;;;;5076027;28;20048;-80
2021/07/29 11:56:09;;;;;;;2.58;1.48;;;24.50;72.00;;;;;;5068028;28;20096;-82
2021/07/29 11:58:39;;;;;;;3.72;2.28;;;24.50;71.50;;;;;;5066867;28;20024;-79
2021/07/29 12:01:11;;;;;;;9.20;2.05;;;24.50;70.80;;;;;;5065497;28;20049;-81
2021/07/29 12:03:41;;;;;;;3.00;1.50;;;24.40;70.00;;;;;;5073671;28;20083;-80
2021/07/29 12:06:07;;;;;;;1.92;1.50;;;24.40;68.10;;;;;;5072601;28;20413;-80
2021/07/29 12:08:34;;;;;;;3.60;1.55;;;24.50;67.60;;;;;;5069753;28;20700;-80
2021/07/29 12:11:01;;;;;;;2.70;1.50;;;24.30;67.90;;;;;;5074505;28;20020;-79
2021/07/29 12:13:29;;;;;;;3.63;1.55;;;24.40;67.90;;;;;;5065243;28;20044;-80
2021/07/29 12:15:57;;;;;;;3.92;1.98;;;24.50;68.60;;;;;;5073994;28;20036;-82
2021/07/29 12:18:23;;;;;;;1.90;1.50;;;24.60;68.70;;;;;;5075401;28;20089;-82
2021/07/29 12:20:54;;;;;;;3.95;2.03;;;24.70;67.80;;;;;;5075848;28;20048;-80
2021/07/29 12:23:21;;;;;;;2.85;1.50;;;24.70;67.40;;;;;;5077214;28;20029;-84
2021/07/29 12:25:47;;;;;;;2.50;1.60;;;24.20;69.00;;;;;;5075373;28;20025;-82
2021/07/29 12:28:14;;;;;;;2.92;1.55;;;24.40;68.80;;;;;;5076940;28;20048;-80
2021/07/29 12:30:48;;;;;;;7.88;2.55;;;24.50;67.80;;;;;;5074259;28;20028;-79
2021/07/29 12:33:16;;;;;;;3.70;1.77;;;24.60;68.80;;;;;;5074593;28;20031;-82
2021/07/29 12:36:04;;;;;;;3.42;1.73;;;25.10;67.30;;;;;;5081978;28;20036;-84
2021/07/29 12:38:30;;;;;;;3.90;1.50;;;25.10;67.10;;;;;;5069703;28;20048;-83
2021/07/29 12:40:56;;;;;;;4.50;2.60;;;25.00;66.10;;;;;;5071547;28;20054;-78
2021/07/29 12:43:23;;;;;;;4.65;2.78;;;24.80;67.70;;;;;;5068287;28;20025;-80
2021/07/29 12:45:53;;;;;;;3.58;1.70;;;25.30;68.80;;;;;;5071527;28;20135;-80
2021/07/29 12:48:19;;;;;;;3.35;1.92;;;24.80;67.10;;;;;;5068393;28;20052;-82
2021/07/29 12:50:45;;;;;;;6.10;1.92;;;25.00;67.00;;;;;;5070763;28;20029;-81